Terminal Aerodrome Forecast
Issued by NWS Springfield, MO

Home | Current Version | Previous Version | Text Only | Print | Product List | Glossary On
Versions: 1 2 3 4 5 6 7 8 9 10 11 12 13 14 15 16 17 18 19 20 21 22
000
FTUS43 KSGF 160924 AAD
TAFSGF
TAF AMD
KSGF 160924Z 1609/1706 35021G29KT P6SM -RA SCT020 OVC050
     FM161100 35021G28KT P6SM SCT060 OVC100
     FM170200 10007KT P6SM SCT250=

USA.gov is the U.S. government's official web portal to all federal, state and local government web resources and services.